createdAt,value
2022-09-05T00:02:05.006Z,3.53
2022-09-05T00:04:59.731Z,3.10
2022-09-05T00:07:58.364Z,2.95
2022-09-05T00:10:37.490Z,4.10
2022-09-05T00:13:26.326Z,4.22
2022-09-05T00:16:31.531Z,3.67
2022-09-05T00:24:17.511Z,2.25
2022-09-05T00:24:32.143Z,3.17
2022-09-05T00:25:41.701Z,2.40
2022-09-05T00:28:35.022Z,2.67
2022-09-05T00:31:51.913Z,2.95
2022-09-05T00:34:26.881Z,3.10
2022-09-05T00:37:10.947Z,2.97
2022-09-05T00:39:47.701Z,2.88
2022-09-05T00:42:21.833Z,2.20
2022-09-05T00:44:54.235Z,2.60
2022-09-05T00:47:36.115Z,2.20
2022-09-05T00:50:25.537Z,1.90
2022-09-05T00:53:07.853Z,4.32
2022-09-05T00:55:52.502Z,2.40
2022-09-05T00:59:03.284Z,2.65
2022-09-05T01:02:05.883Z,3.13
2022-09-05T01:04:49.847Z,3.45
2022-09-05T01:07:33.445Z,3.53
2022-09-05T01:10:23.490Z,1.85
2022-09-05T01:13:16.254Z,2.15
2022-09-05T01:16:04.434Z,2.47
2022-09-05T01:18:53.952Z,2.85
2022-09-05T01:21:36.365Z,1.70
2022-09-05T01:24:13.056Z,2.53
2022-09-05T01:27:16.731Z,2.28
2022-09-05T01:29:48.021Z,1.85
2022-09-05T01:32:29.381Z,2.00
2022-09-05T01:35:27.975Z,2.03
2022-09-05T01:38:15.462Z,4.07
2022-09-05T01:41:18.692Z,2.13
2022-09-05T01:44:11.237Z,2.75
2022-09-05T01:46:49.752Z,2.35
2022-09-05T01:49:34.857Z,2.15
2022-09-05T01:52:27.426Z,2.58
2022-09-05T01:55:22.283Z,2.25
2022-09-05T02:01:25.581Z,2.40
2022-09-05T02:04:19.706Z,2.38
2022-09-05T02:07:19.245Z,1.95
2022-09-05T02:10:38.332Z,2.10
2022-09-05T02:13:28.645Z,2.50
2022-09-05T02:16:04.082Z,3.22
2022-09-05T02:19:01.286Z,2.22
2022-09-05T02:21:56.838Z,3.33
2022-09-05T02:24:37.716Z,2.63
2022-09-05T02:27:11.010Z,1.95
2022-09-05T02:30:08.626Z,2.25
2022-09-05T02:32:57.062Z,2.25
2022-09-05T02:35:52.589Z,1.65
2022-09-05T02:43:30.411Z,2.17
2022-09-05T02:45:12.662Z,2.83
2022-09-05T02:45:23.855Z,1.98
2022-09-05T02:48:18.133Z,2.17
2022-09-05T02:55:03.359Z,2.42
2022-09-05T02:57:37.805Z,2.70
2022-09-05T02:57:39.469Z,1.92
2022-09-05T03:02:42.005Z,3.67
2022-09-05T03:08:22.071Z,2.28
2022-09-05T03:11:12.122Z,1.75
2022-09-05T03:13:57.963Z,2.83
2022-09-05T03:16:53.648Z,2.10
2022-09-05T03:19:58.693Z,4.13
2022-09-05T03:22:44.780Z,2.28
2022-09-05T03:25:21.086Z,2.53
2022-09-05T03:28:13.056Z,2.17
2022-09-05T03:31:07.939Z,2.88
2022-09-05T03:34:23.482Z,2.15
2022-09-05T03:37:11.859Z,1.75
2022-09-05T03:39:53.962Z,3.20
2022-09-05T03:42:33.285Z,2.78
2022-09-05T03:45:36.961Z,1.92
2022-09-05T03:48:37.849Z,3.00
2022-09-05T03:57:19.855Z,2.22
2022-09-05T03:57:28.499Z,2.13
2022-09-05T03:57:50.646Z,2.53
2022-09-05T04:00:21.567Z,2.15
2022-09-05T04:08:07.407Z,2.60
2022-09-05T04:08:18.260Z,2.60
2022-09-05T04:09:56.664Z,3.05
2022-09-05T04:12:30.867Z,2.47
2022-09-05T04:15:27.194Z,2.90
2022-09-05T04:18:03.822Z,2.70
2022-09-05T04:21:12.738Z,3.22
2022-09-05T04:24:12.522Z,2.35
2022-09-05T04:27:09.583Z,1.90
2022-09-05T04:29:48.855Z,1.95
2022-09-05T04:32:54.982Z,2.75
2022-09-05T04:35:51.596Z,2.92
2022-09-05T04:38:40.030Z,2.10
2022-09-05T04:41:16.282Z,2.95
2022-09-05T04:43:52.904Z,2.00
2022-09-05T04:46:27.169Z,2.05
2022-09-05T04:49:02.116Z,3.83
2022-09-05T04:52:01.014Z,2.83
2022-09-05T04:54:41.236Z,1.67
2022-09-05T04:57:13.769Z,2.80
2022-09-05T05:02:29.888Z,2.63
2022-09-05T05:06:12.391Z,2.30
2022-09-05T05:06:12.587Z,2.57
2022-09-05T05:08:38.675Z,2.60
2022-09-05T05:16:57.980Z,2.72
2022-09-05T05:18:06.545Z,2.03
2022-09-05T05:18:11.156Z,2.17
2022-09-05T05:20:40.469Z,3.10
2022-09-05T05:23:29.078Z,2.60
2022-09-05T05:26:00.538Z,5.95
2022-09-05T05:28:51.047Z,3.08
2022-09-05T05:31:27.071Z,3.08
2022-09-05T05:33:57.744Z,2.03
2022-09-05T05:36:47.704Z,2.67
2022-09-05T05:39:28.445Z,2.25
2022-09-05T05:41:57.838Z,2.92
2022-09-05T05:44:26.255Z,4.25
2022-09-05T05:47:01.685Z,2.20
2022-09-05T05:49:52.897Z,2.88
2022-09-05T05:52:35.049Z,2.22
2022-09-05T05:55:50.270Z,2.67
2022-09-05T05:58:25.032Z,2.85
2022-09-05T06:01:28.849Z,2.25
2022-09-05T06:04:03.891Z,2.67
2022-09-05T06:07:09.972Z,3.35
2022-09-05T06:14:49.044Z,3.55
2022-09-05T06:15:04.633Z,2.53
2022-09-05T06:16:17.488Z,2.58
2022-09-05T06:18:59.906Z,4.50
2022-09-05T06:22:09.468Z,2.58
2022-09-05T06:25:17.318Z,2.20
2022-09-05T06:28:19.664Z,2.17
2022-09-05T06:31:29.071Z,4.07
2022-09-05T06:34:30.933Z,2.20
2022-09-05T06:37:13.142Z,4.30
2022-09-05T06:40:06.680Z,3.30
2022-09-05T06:43:10.083Z,3.00
2022-09-05T06:46:54.950Z,4.03
2022-09-05T06:49:30.341Z,3.03
2022-09-05T06:52:29.222Z,3.50
2022-09-05T06:55:12.343Z,4.00
2022-09-05T06:57:44.222Z,3.33
2022-09-05T07:00:23.714Z,5.95
2022-09-05T07:03:28.947Z,5.55
2022-09-05T07:06:19.464Z,5.30
2022-09-05T07:08:59.502Z,16.95
2022-09-05T07:12:06.372Z,11.50
2022-09-05T07:14:48.335Z,7.80
2022-09-05T07:18:06.261Z,8.00
2022-09-05T07:21:06.739Z,6.32
2022-09-05T07:24:09.255Z,6.18
2022-09-05T07:26:52.273Z,10.05
2022-09-05T07:29:28.038Z,6.47
2022-09-05T07:31:59.505Z,13.73
2022-09-05T07:34:32.228Z,14.35
2022-09-05T07:37:15.114Z,8.13
2022-09-05T07:40:25.845Z,18.13
2022-09-05T07:43:10.624Z,20.73
2022-09-05T07:45:58.261Z,19.77
2022-09-05T07:48:35.326Z,16.30
2022-09-05T07:56:53.914Z,9.35
2022-09-05T07:57:06.275Z,6.78
2022-09-05T07:59:51.277Z,11.75
2022-09-05T08:02:18.849Z,10.77
2022-09-05T08:04:46.504Z,8.00
2022-09-05T08:07:49.388Z,7.20
2022-09-05T08:11:14.481Z,6.17
2022-09-05T08:13:42.633Z,6.70
2022-09-05T08:16:21.246Z,7.18
2022-09-05T08:19:34.792Z,6.57
2022-09-05T08:22:06.242Z,3.58
2022-09-05T08:24:41.526Z,6.93
2022-09-05T08:27:16.707Z,6.90
2022-09-05T08:30:26.391Z,9.10
2022-09-05T08:33:11.885Z,7.63
2022-09-05T08:35:59.335Z,12.93
2022-09-05T08:38:37.420Z,18.90
2022-09-05T08:41:49.270Z,12.43
2022-09-05T08:46:41.439Z,11.90
2022-09-05T08:47:46.011Z,7.88
2022-09-05T08:50:32.813Z,7.93
2022-09-05T08:53:46.491Z,5.65
2022-09-05T08:56:21.275Z,7.05
2022-09-05T08:59:32.141Z,12.18
2022-09-05T09:02:46.643Z,6.07
2022-09-05T09:06:12.230Z,10.20
2022-09-05T09:08:30.901Z,30.92
2022-09-05T09:11:17.834Z,13.20
2022-09-05T09:14:21.704Z,12.73
2022-09-05T09:17:10.643Z,10.50
2022-09-05T09:19:43.904Z,7.57
2022-09-05T09:22:20.105Z,9.80
2022-09-05T09:25:15.510Z,7.80
2022-09-05T09:28:47.669Z,4.28
2022-09-05T09:31:10.892Z,16.77
2022-09-05T09:33:55.182Z,5.05
2022-09-05T09:36:37.325Z,5.43
2022-09-05T09:39:39.022Z,6.00
2022-09-05T09:42:33.453Z,5.93
2022-09-05T09:45:31.429Z,6.53
2022-09-05T09:47:58.634Z,6.47
2022-09-05T09:50:31.789Z,5.32
2022-09-05T09:53:18.801Z,7.57
2022-09-05T09:56:06.880Z,12.00
2022-09-05T09:59:13.667Z,18.10
2022-09-05T10:04:30.898Z,16.45
2022-09-05T10:10:48.843Z,13.13
2022-09-05T10:11:05.194Z,8.48
2022-09-05T10:12:35.307Z,10.50
2022-09-05T10:15:30.438Z,6.57
2022-09-05T10:18:24.303Z,17.80
2022-09-05T10:21:17.272Z,8.88
2022-09-05T10:23:57.066Z,13.80
2022-09-05T10:26:46.448Z,9.95
2022-09-05T10:29:36.669Z,10.52
2022-09-05T10:35:07.861Z,14.55
2022-09-05T10:35:24.299Z,17.05
2022-09-05T10:38:10.161Z,11.23
2022-09-05T10:41:11.043Z,12.65
2022-09-05T10:43:33.981Z,15.88
2022-09-05T10:46:50.133Z,14.20
2022-09-05T10:49:26.284Z,12.57
2022-09-05T10:52:13.150Z,11.23
2022-09-05T10:55:13.988Z,8.65
2022-09-05T10:57:59.247Z,10.55
2022-09-05T11:02:20.510Z,8.85
2022-09-05T11:03:45.198Z,11.52
2022-09-05T11:06:24.804Z,9.02
2022-09-05T11:09:20.027Z,9.02
2022-09-05T11:12:19.650Z,9.98
2022-09-05T11:14:51.297Z,5.97
2022-09-05T11:18:03.876Z,8.70
2022-09-05T11:20:47.194Z,3.00
2022-09-05T11:23:37.643Z,6.38
2022-09-05T11:26:16.838Z,10.52
2022-09-05T11:29:00.467Z,17.45
2022-09-05T11:36:05.253Z,7.20
2022-09-05T11:39:45.691Z,7.43
2022-09-05T11:41:16.490Z,7.05
2022-09-05T11:44:24.508Z,5.95
2022-09-05T11:47:28.311Z,8.02
2022-09-05T11:50:11.969Z,7.72
2022-09-05T11:53:07.030Z,15.70
2022-09-05T11:55:53.018Z,7.18
2022-09-05T11:59:04.778Z,5.85
2022-09-05T12:01:50.911Z,3.15
2022-09-05T12:04:29.759Z,2.33
2022-09-05T12:07:37.280Z,6.43
2022-09-05T12:10:10.416Z,8.90
2022-09-05T12:13:31.301Z,10.90
2022-09-05T12:16:08.313Z,7.95
2022-09-05T12:19:15.588Z,6.25
2022-09-05T12:22:09.075Z,8.10
2022-09-05T12:25:17.187Z,17.17
2022-09-05T12:29:09.574Z,9.90
2022-09-05T12:33:14.848Z,15.77
2022-09-05T12:36:06.806Z,6.75
2022-09-05T12:40:55.103Z,8.55
2022-09-05T12:41:35.258Z,6.13
2022-09-05T12:43:27.588Z,6.63
2022-09-05T12:45:50.492Z,5.63
2022-09-05T12:48:39.877Z,4.90
2022-09-05T12:51:46.519Z,4.80
2022-09-05T12:54:34.745Z,4.60
2022-09-05T13:02:20.057Z,6.97
2022-09-05T13:03:12.650Z,7.93
2022-09-05T13:03:35.533Z,8.82
2022-09-05T13:06:25.622Z,5.63
2022-09-05T13:09:01.730Z,5.15
2022-09-05T13:14:52.375Z,4.07
2022-09-05T13:15:03.209Z,5.32
2022-09-05T13:17:17.109Z,1.90
2022-09-05T13:19:51.828Z,3.15
2022-09-05T13:22:22.617Z,3.85
2022-09-05T13:25:16.582Z,4.32
2022-09-05T13:27:56.657Z,3.87
2022-09-05T13:32:05.947Z,4.63
2022-09-05T13:38:01.425Z,4.72
2022-09-05T13:38:13.582Z,7.50
2022-09-05T13:39:07.015Z,3.23
2022-09-05T13:41:43.422Z,4.95
2022-09-05T13:44:25.581Z,6.30
2022-09-05T13:47:29.632Z,4.88
2022-09-05T13:50:19.835Z,6.57
2022-09-05T13:52:52.517Z,3.45
2022-09-05T13:55:45.999Z,3.55
2022-09-05T13:58:32.076Z,2.90
2022-09-05T14:01:40.058Z,3.92
2022-09-05T14:05:06.625Z,5.78
2022-09-05T14:07:47.024Z,4.68
2022-09-05T14:10:20.149Z,5.43
2022-09-05T14:13:16.305Z,2.92
2022-09-05T14:16:07.968Z,2.88
2022-09-05T14:19:04.442Z,4.38
2022-09-05T14:21:36.813Z,3.58
2022-09-05T14:24:27.797Z,3.65
2022-09-05T14:26:59.000Z,5.60
2022-09-05T14:29:35.404Z,6.40
2022-09-05T14:37:38.788Z,7.05
2022-09-05T14:37:40.489Z,4.95
2022-09-05T14:38:33.389Z,5.45
2022-09-05T14:41:43.204Z,4.63
2022-09-05T14:44:28.242Z,4.00
2022-09-05T14:47:34.914Z,30.60
2022-09-05T14:50:21.262Z,13.73
2022-09-05T14:57:02.080Z,12.70
2022-09-05T15:02:42.070Z,10.07
2022-09-05T15:02:44.574Z,12.48
2022-09-05T15:04:51.431Z,9.30
2022-09-05T15:07:33.197Z,7.68
2022-09-05T15:12:14.704Z,7.15
2022-09-05T15:13:11.724Z,5.05
2022-09-05T15:15:56.418Z,7.22
2022-09-05T15:18:45.968Z,4.53
2022-09-05T15:21:33.893Z,4.47
2022-09-05T15:24:02.355Z,11.52
2022-09-05T15:26:31.538Z,7.57
2022-09-05T15:29:14.910Z,8.98
2022-09-05T15:31:42.639Z,3.15
2022-09-05T15:34:26.160Z,4.50
2022-09-05T15:37:20.785Z,4.80
2022-09-05T15:39:45.859Z,3.75
2022-09-05T15:42:21.145Z,4.25
2022-09-05T15:45:08.585Z,5.57
2022-09-05T15:47:39.478Z,4.35
2022-09-05T15:50:22.434Z,2.30
2022-09-05T15:52:55.600Z,5.93
2022-09-05T15:55:26.389Z,2.47
2022-09-05T15:58:01.714Z,2.28
2022-09-05T16:00:41.218Z,4.03
2022-09-05T16:04:23.648Z,3.22
2022-09-05T16:10:34.785Z,10.82
2022-09-05T16:10:41.776Z,14.48
2022-09-05T16:12:18.962Z,12.10
2022-09-05T16:15:37.989Z,19.13
2022-09-05T16:23:14.567Z,16.17
2022-09-05T16:23:32.502Z,24.58
2022-09-05T16:24:04.848Z,24.38
2022-09-05T16:26:43.224Z,16.83
2022-09-05T16:29:26.647Z,21.83
2022-09-05T16:32:28.289Z,19.40
2022-09-05T16:35:05.202Z,17.88
2022-09-05T16:37:35.446Z,17.85
2022-09-05T16:40:21.084Z,21.33
2022-09-05T16:43:13.307Z,18.60
2022-09-05T16:46:01.911Z,16.52
2022-09-05T16:48:39.880Z,19.58
2022-09-05T16:51:35.903Z,22.52
2022-09-05T16:54:28.704Z,15.18
2022-09-05T16:57:02.541Z,17.65
2022-09-05T16:59:33.292Z,20.02
2022-09-05T17:02:10.024Z,13.80
2022-09-05T17:05:04.137Z,15.98
2022-09-05T17:07:59.012Z,11.18
2022-09-05T17:10:34.407Z,9.65
2022-09-05T17:13:03.725Z,15.82
2022-09-05T17:15:51.533Z,20.48
2022-09-05T17:18:25.011Z,38.17
2022-09-05T17:20:59.473Z,39.33
2022-09-05T17:29:18.184Z,35.93
2022-09-05T17:29:49.092Z,24.50
2022-09-05T17:31:27.781Z,21.08
2022-09-05T17:32:52.157Z,32.33
2022-09-05T17:35:57.584Z,167.48
2022-09-05T17:38:42.721Z,368.10
2022-09-05T17:41:43.234Z,401.00
2022-09-05T17:44:28.906Z,348.52
2022-09-05T17:47:27.491Z,341.67
2022-09-05T17:50:33.353Z,374.85
2022-09-05T17:53:26.444Z,434.45
2022-09-05T17:55:55.130Z,357.05
2022-09-05T17:58:39.931Z,316.35
2022-09-05T18:01:22.389Z,221.80
2022-09-05T18:03:55.660Z,196.43
2022-09-05T18:06:52.775Z,193.93
2022-09-05T18:09:39.881Z,129.88
2022-09-05T18:13:13.551Z,138.02
2022-09-05T18:15:39.041Z,116.20
2022-09-05T18:21:21.024Z,91.65
2022-09-05T18:24:11.967Z,85.05
2022-09-05T18:29:31.059Z,82.03
2022-09-05T18:32:12.818Z,75.43
2022-09-05T18:34:41.822Z,86.20
2022-09-05T18:37:37.609Z,83.90
2022-09-05T18:42:39.732Z,67.55
2022-09-05T18:45:16.805Z,50.25
2022-09-05T18:47:59.386Z,54.10
2022-09-05T18:50:32.384Z,46.20
2022-09-05T18:53:10.698Z,58.47
2022-09-05T18:56:13.750Z,56.63
2022-09-05T18:59:11.609Z,41.92
2022-09-05T19:02:00.248Z,47.70
2022-09-05T19:04:52.053Z,44.15
2022-09-05T19:07:32.589Z,52.30
2022-09-05T19:10:34.469Z,38.22
2022-09-05T19:13:23.969Z,34.42
2022-09-05T19:16:42.372Z,42.08
2022-09-05T19:19:09.834Z,29.40
2022-09-05T19:21:47.724Z,35.55
2022-09-05T19:24:24.741Z,32.72
2022-09-05T19:27:32.782Z,25.45
2022-09-05T19:36:46.723Z,31.58
2022-09-05T19:37:10.676Z,23.63
2022-09-05T19:37:11.969Z,31.65
2022-09-05T19:38:13.348Z,21.60
2022-09-05T19:47:27.633Z,26.20
2022-09-05T19:47:40.055Z,22.30
2022-09-05T19:47:42.804Z,18.90
2022-09-05T19:49:11.359Z,18.52
2022-09-05T19:51:44.052Z,20.15
2022-09-05T19:54:30.169Z,17.67
2022-09-05T19:57:04.142Z,23.20
2022-09-05T19:59:40.130Z,22.25
2022-09-05T20:02:16.983Z,21.55
2022-09-05T20:05:07.215Z,28.05
2022-09-05T20:07:48.031Z,27.52
2022-09-05T20:10:26.060Z,18.35
2022-09-05T20:12:54.042Z,19.63
2022-09-05T20:15:34.668Z,21.75
2022-09-05T20:18:21.634Z,16.08
2022-09-05T20:20:58.656Z,21.27
2022-09-05T20:23:28.756Z,20.15
2022-09-05T20:25:58.188Z,19.38
2022-09-05T20:28:28.577Z,12.70
2022-09-05T20:31:01.864Z,14.48
2022-09-05T20:33:53.435Z,13.00
2022-09-05T20:43:11.255Z,13.82
2022-09-05T20:43:15.641Z,11.02
2022-09-05T20:43:19.945Z,12.27
2022-09-05T20:45:01.232Z,8.82
2022-09-05T20:54:04.583Z,13.43
2022-09-05T20:54:23.201Z,12.93
2022-09-05T20:54:28.317Z,14.48
2022-09-05T20:56:22.537Z,11.85
2022-09-05T20:58:51.454Z,8.40
2022-09-05T21:01:23.402Z,11.65
2022-09-05T21:03:57.479Z,11.75
2022-09-05T21:06:33.565Z,14.38
2022-09-05T21:09:14.946Z,11.05
2022-09-05T21:11:46.135Z,11.40
2022-09-05T21:14:23.301Z,11.00
2022-09-05T21:17:08.300Z,10.07
2022-09-05T21:19:53.557Z,10.50
2022-09-05T21:22:28.104Z,10.18
2022-09-05T21:25:22.079Z,8.95
2022-09-05T21:28:06.864Z,9.25
2022-09-05T21:30:35.953Z,8.77
2022-09-05T21:33:45.193Z,9.52
2022-09-05T21:36:11.884Z,10.63
2022-09-05T21:38:41.467Z,7.13
2022-09-05T21:41:09.695Z,6.22
2022-09-05T21:47:38.805Z,7.32
2022-09-05T21:47:47.161Z,6.47
2022-09-05T21:49:25.472Z,5.22
2022-09-05T21:51:53.221Z,9.32
2022-09-05T21:59:17.433Z,8.15
2022-09-05T21:59:18.645Z,5.72
2022-09-05T22:00:15.624Z,5.20
2022-09-05T22:02:46.571Z,5.97
2022-09-05T22:05:14.081Z,7.70
2022-09-05T22:07:42.404Z,5.80
2022-09-05T22:10:10.383Z,5.70
2022-09-05T22:12:38.850Z,6.03
2022-09-05T22:15:27.231Z,4.22
2022-09-05T22:17:59.676Z,5.00
2022-09-05T22:20:51.833Z,4.10
2022-09-05T22:23:38.582Z,5.13
2022-09-05T22:26:06.457Z,3.90
2022-09-05T22:28:35.985Z,3.13
2022-09-05T22:31:07.466Z,3.80
2022-09-05T22:33:36.058Z,3.40
2022-09-05T22:36:04.263Z,4.07
2022-09-05T22:38:32.546Z,3.38
2022-09-05T22:41:00.151Z,3.45
2022-09-05T22:43:27.506Z,3.42
2022-09-05T22:45:58.118Z,4.82
2022-09-05T22:48:25.598Z,3.08
2022-09-05T22:50:52.936Z,3.60
2022-09-05T22:53:20.265Z,3.47
2022-09-05T22:55:55.029Z,3.45
2022-09-05T22:58:22.404Z,4.68
2022-09-05T23:00:49.914Z,2.70
2022-09-05T23:03:17.199Z,2.65
2022-09-05T23:05:44.527Z,2.25
2022-09-05T23:08:11.881Z,3.95
2022-09-05T23:10:39.393Z,2.85
2022-09-05T23:13:09.881Z,3.28
2022-09-05T23:15:38.039Z,2.13
2022-09-05T23:18:05.920Z,2.05
2022-09-05T23:20:35.705Z,2.47
2022-09-05T23:23:05.578Z,3.40
2022-09-05T23:25:33.899Z,2.55
2022-09-05T23:28:06.371Z,1.42
2022-09-05T23:30:34.151Z,3.03
2022-09-05T23:33:01.459Z,1.80
2022-09-05T23:35:28.718Z,3.28
2022-09-05T23:37:56.079Z,1.33
2022-09-05T23:40:23.531Z,2.35
2022-09-05T23:42:56.186Z,2.72
2022-09-05T23:45:27.828Z,1.42
2022-09-05T23:47:56.733Z,2.80
2022-09-05T23:50:24.803Z,1.40
2022-09-05T23:52:52.197Z,3.03
2022-09-05T23:55:22.455Z,2.28
2022-09-05T23:57:49.778Z,2.30
